createdAt,value
2022-11-19T00:01:35.172Z,61.08
2022-11-19T00:04:02.877Z,63.00
2022-11-19T00:06:30.597Z,62.95
2022-11-19T00:08:58.355Z,61.83
2022-11-19T00:11:41.184Z,63.58
2022-11-19T00:14:12.354Z,63.90
2022-11-19T00:16:40.089Z,62.20
2022-11-19T00:19:08.164Z,66.05
2022-11-19T00:21:35.911Z,68.75
2022-11-19T00:24:03.540Z,59.88
2022-11-19T00:26:31.186Z,69.05
2022-11-19T00:28:58.967Z,63.30
2022-11-19T00:31:28.061Z,68.00
2022-11-19T00:33:55.929Z,64.45
2022-11-19T00:36:24.281Z,64.82
2022-11-19T00:38:52.056Z,63.97
2022-11-19T00:41:20.410Z,66.43
2022-11-19T00:43:48.486Z,62.45
2022-11-19T00:46:17.643Z,61.85
2022-11-19T00:48:47.206Z,64.50
2022-11-19T00:51:15.300Z,62.88
2022-11-19T00:53:43.052Z,63.55
2022-11-19T00:56:12.522Z,65.45
2022-11-19T00:58:40.590Z,64.00
2022-11-19T01:01:09.365Z,64.32
2022-11-19T01:03:38.396Z,61.53
2022-11-19T01:06:08.264Z,64.03
2022-11-19T01:08:35.983Z,61.67
2022-11-19T01:11:07.787Z,65.68
2022-11-19T01:13:36.050Z,61.63
2022-11-19T01:16:05.518Z,62.17
2022-11-19T01:18:33.695Z,66.90
2022-11-19T01:21:01.539Z,65.38
2022-11-19T01:23:30.661Z,65.60
2022-11-19T01:25:58.405Z,63.55
2022-11-19T01:28:26.200Z,63.70
2022-11-19T01:30:53.999Z,60.10
2022-11-19T01:33:22.639Z,64.03
2022-11-19T01:36:01.328Z,65.35
2022-11-19T01:38:30.857Z,62.78
2022-11-19T01:40:59.307Z,63.67
2022-11-19T01:43:45.400Z,61.92
2022-11-19T01:46:14.668Z,64.18
2022-11-19T01:48:45.544Z,67.43
2022-11-19T01:51:15.247Z,67.40
2022-11-19T01:53:45.557Z,64.53
2022-11-19T01:56:13.552Z,67.28
2022-11-19T01:58:42.603Z,64.57
2022-11-19T02:01:11.083Z,68.95
2022-11-19T02:03:39.631Z,66.72
2022-11-19T02:06:08.428Z,68.28
2022-11-19T02:08:39.281Z,62.17
2022-11-19T02:11:22.001Z,67.93
2022-11-19T02:13:57.356Z,61.05
2022-11-19T02:16:28.600Z,66.10
2022-11-19T02:19:00.106Z,63.55
2022-11-19T02:21:33.169Z,64.28
2022-11-19T02:24:29.333Z,63.83
2022-11-19T02:27:37.385Z,61.97
2022-11-19T02:30:12.020Z,66.88
2022-11-19T02:32:48.092Z,62.65
2022-11-19T02:35:21.378Z,61.38
2022-11-19T02:37:53.100Z,61.15
2022-11-19T02:40:24.951Z,66.15
2022-11-19T02:42:58.017Z,83.57
2022-11-19T02:45:30.644Z,65.10
2022-11-19T02:48:02.044Z,64.95
2022-11-19T02:50:32.991Z,73.47
2022-11-19T02:53:00.648Z,62.15
2022-11-19T02:55:28.832Z,60.72
2022-11-19T02:57:59.664Z,63.00
2022-11-19T03:00:47.117Z,74.50
2022-11-19T03:03:33.921Z,67.88
2022-11-19T03:06:04.511Z,68.88
2022-11-19T03:08:32.352Z,66.55
2022-11-19T03:11:08.855Z,69.88
2022-11-19T03:14:03.677Z,67.53
2022-11-19T03:16:44.029Z,64.35
2022-11-19T03:19:19.789Z,67.78
2022-11-19T03:21:52.524Z,62.10
2022-11-19T03:24:24.610Z,63.83
2022-11-19T03:26:55.300Z,61.88
2022-11-19T03:29:23.891Z,63.30
2022-11-19T03:31:55.633Z,64.35
2022-11-19T03:34:24.412Z,67.80
2022-11-19T03:36:54.783Z,62.97
2022-11-19T03:39:23.220Z,61.50
2022-11-19T03:41:52.305Z,62.03
2022-11-19T03:44:23.240Z,63.67
2022-11-19T03:46:56.001Z,62.63
2022-11-19T03:49:28.445Z,63.63
2022-11-19T03:51:59.375Z,64.10
2022-11-19T03:54:27.105Z,71.50
2022-11-19T03:56:55.821Z,64.05
2022-11-19T03:59:29.326Z,62.85
2022-11-19T04:02:01.291Z,61.80
2022-11-19T04:04:38.001Z,65.28
2022-11-19T04:07:10.868Z,63.97
2022-11-19T04:09:39.156Z,61.05
2022-11-19T04:12:08.199Z,69.75
2022-11-19T04:14:35.969Z,63.03
2022-11-19T04:17:05.038Z,69.78
2022-11-19T04:19:32.770Z,64.05
2022-11-19T04:22:00.487Z,62.20
2022-11-19T04:24:28.238Z,62.60
2022-11-19T04:26:55.972Z,63.95
2022-11-19T04:29:23.701Z,64.80
2022-11-19T04:31:51.414Z,63.72
2022-11-19T04:34:20.500Z,62.47
2022-11-19T04:36:48.383Z,63.70
2022-11-19T04:39:16.159Z,64.95
2022-11-19T04:41:43.877Z,67.03
2022-11-19T04:44:11.621Z,61.88
2022-11-19T04:46:39.299Z,64.88
2022-11-19T04:49:07.076Z,65.00
2022-11-19T04:51:36.179Z,62.75
2022-11-19T04:54:03.903Z,64.70
2022-11-19T04:56:31.607Z,61.50
2022-11-19T04:58:59.287Z,62.35
2022-11-19T05:01:27.043Z,63.03
2022-11-19T05:03:54.776Z,59.30
2022-11-19T05:06:22.487Z,60.35
2022-11-19T05:08:51.560Z,64.45
2022-11-19T05:11:19.333Z,64.55
2022-11-19T05:13:47.020Z,65.68
2022-11-19T05:16:14.722Z,64.43
2022-11-19T05:18:42.453Z,64.88
2022-11-19T05:21:10.322Z,64.15
2022-11-19T05:23:38.054Z,65.90
2022-11-19T05:26:07.220Z,64.10
2022-11-19T05:28:38.941Z,61.95
2022-11-19T05:31:07.268Z,67.90
2022-11-19T05:33:35.017Z,64.30
2022-11-19T05:36:02.866Z,68.18
2022-11-19T05:38:30.571Z,61.75
2022-11-19T05:40:58.291Z,65.35
2022-11-19T05:43:27.379Z,66.55
2022-11-19T05:45:55.018Z,62.28
2022-11-19T05:48:22.740Z,58.95
2022-11-19T05:50:50.428Z,63.63
2022-11-19T05:53:18.063Z,61.83
2022-11-19T05:55:45.771Z,64.22
2022-11-19T05:58:13.802Z,64.32
2022-11-19T06:00:42.966Z,61.92
2022-11-19T06:03:11.005Z,68.20
2022-11-19T06:05:40.479Z,63.90
2022-11-19T06:08:08.369Z,65.65
2022-11-19T06:10:36.024Z,72.88
2022-11-19T06:13:03.676Z,68.82
2022-11-19T06:15:31.407Z,63.35
2022-11-19T06:18:00.408Z,60.55
2022-11-19T06:20:28.115Z,68.93
2022-11-19T06:22:55.837Z,60.53
2022-11-19T06:25:23.915Z,61.42
2022-11-19T06:27:51.621Z,62.03
2022-11-19T06:30:19.529Z,69.63
2022-11-19T06:32:47.232Z,60.30
2022-11-19T06:35:16.476Z,61.13
2022-11-19T06:37:44.131Z,60.05
2022-11-19T06:40:13.127Z,62.55
2022-11-19T06:42:40.852Z,60.35
2022-11-19T06:45:11.450Z,63.78
2022-11-19T06:47:40.351Z,61.75
2022-11-19T06:50:09.971Z,59.85
2022-11-19T06:52:39.360Z,61.10
2022-11-19T06:55:07.868Z,68.35
2022-11-19T06:57:35.941Z,61.65
2022-11-19T07:00:04.108Z,62.65
2022-11-19T07:02:31.931Z,60.50
2022-11-19T07:04:59.625Z,60.45
2022-11-19T07:07:27.532Z,60.40
2022-11-19T07:09:56.655Z,59.47
2022-11-19T07:12:24.302Z,61.22
2022-11-19T07:14:52.177Z,61.22
2022-11-19T07:17:20.011Z,64.78
2022-11-19T07:19:47.693Z,65.78
2022-11-19T07:22:15.453Z,76.72
2022-11-19T07:24:43.204Z,65.18
2022-11-19T07:27:12.524Z,65.72
2022-11-19T07:29:40.236Z,43.08
2022-11-19T07:32:08.089Z,44.05
2022-11-19T07:34:36.204Z,43.65
2022-11-19T07:37:03.934Z,47.85
2022-11-19T07:39:31.672Z,42.67
2022-11-19T07:42:16.793Z,42.75
2022-11-19T07:44:47.904Z,43.10
2022-11-19T07:47:17.427Z,44.67
2022-11-19T07:49:45.117Z,43.72
2022-11-19T07:52:12.896Z,48.25
2022-11-19T07:54:40.606Z,45.47
2022-11-19T07:57:08.900Z,46.97
2022-11-19T07:59:36.591Z,42.97
2022-11-19T08:02:05.738Z,45.17
2022-11-19T08:04:33.547Z,45.95
2022-11-19T08:07:02.471Z,47.15
2022-11-19T08:09:30.216Z,46.95
2022-11-19T08:11:57.921Z,47.00
2022-11-19T08:14:25.643Z,47.67
2022-11-19T08:17:10.799Z,47.30
2022-11-19T08:19:39.898Z,42.72
2022-11-19T08:22:07.815Z,47.45
2022-11-19T08:24:35.463Z,46.75
2022-11-19T08:27:03.133Z,47.45
2022-11-19T08:29:30.780Z,45.85
2022-11-19T08:31:58.520Z,45.72
2022-11-19T08:34:26.339Z,46.72
2022-11-19T08:36:55.365Z,47.70
2022-11-19T08:39:23.034Z,47.20
2022-11-19T08:42:08.311Z,48.03
2022-11-19T08:44:36.048Z,47.75
2022-11-19T08:47:03.679Z,49.53
2022-11-19T08:49:31.348Z,46.88
2022-11-19T08:52:00.384Z,46.55
2022-11-19T08:54:28.071Z,44.13
2022-11-19T08:56:55.772Z,49.85
2022-11-19T08:59:23.474Z,48.22
2022-11-19T09:01:51.247Z,46.85
2022-11-19T09:04:19.318Z,47.72
2022-11-19T09:06:47.167Z,49.90
2022-11-19T09:09:16.408Z,49.05
2022-11-19T09:11:44.064Z,52.58
2022-11-19T09:14:11.934Z,49.63
2022-11-19T09:16:39.641Z,45.80
2022-11-19T09:19:07.288Z,50.13
2022-11-19T09:21:34.936Z,46.58
2022-11-19T09:24:02.614Z,48.50
2022-11-19T09:26:31.692Z,47.20
2022-11-19T09:28:59.416Z,48.67
2022-11-19T09:31:27.168Z,48.72
2022-11-19T09:33:55.261Z,49.35
2022-11-19T09:36:22.993Z,49.40
2022-11-19T09:38:50.684Z,47.30
2022-11-19T09:41:43.416Z,49.70
2022-11-19T09:44:23.600Z,48.83
2022-11-19T09:46:57.247Z,49.22
2022-11-19T09:49:29.792Z,50.65
2022-11-19T09:51:59.667Z,47.85
2022-11-19T09:54:27.617Z,48.17
2022-11-19T09:57:01.774Z,49.13
2022-11-19T09:59:35.028Z,49.75
2022-11-19T10:02:02.931Z,47.10
2022-11-19T10:04:33.347Z,47.60
2022-11-19T10:07:11.341Z,48.80
2022-11-19T10:09:56.166Z,50.08
2022-11-19T10:12:33.341Z,51.17
2022-11-19T10:15:13.809Z,52.83
2022-11-19T10:17:51.263Z,48.67
2022-11-19T10:20:35.501Z,51.97
2022-11-19T10:23:07.315Z,50.45
2022-11-19T10:25:37.600Z,48.05
2022-11-19T10:28:12.468Z,48.60
2022-11-19T10:30:41.896Z,51.55
2022-11-19T10:33:15.921Z,51.70
2022-11-19T10:35:45.641Z,50.00
2022-11-19T10:38:18.883Z,49.15
2022-11-19T10:40:48.193Z,50.10
2022-11-19T10:43:23.588Z,52.28
2022-11-19T10:45:51.340Z,49.30
2022-11-19T10:48:21.929Z,52.60
2022-11-19T10:50:49.883Z,49.63
2022-11-19T10:53:21.070Z,49.75
2022-11-19T10:55:54.465Z,51.63
2022-11-19T10:58:26.300Z,48.97
2022-11-19T11:00:54.744Z,47.47
2022-11-19T11:03:25.095Z,50.38
2022-11-19T11:06:01.929Z,49.55
2022-11-19T11:08:29.728Z,54.40
2022-11-19T11:10:57.525Z,52.03
2022-11-19T11:13:53.944Z,49.50
2022-11-19T11:16:23.792Z,52.08
2022-11-19T11:18:54.243Z,50.85
2022-11-19T11:21:34.288Z,52.53
2022-11-19T11:24:04.537Z,50.88
2022-11-19T11:26:34.608Z,48.40
2022-11-19T11:29:05.812Z,49.40
2022-11-19T11:31:37.647Z,48.17
2022-11-19T11:34:06.890Z,49.10
2022-11-19T11:36:36.627Z,50.78
2022-11-19T11:39:06.136Z,53.20
2022-11-19T11:44:27.319Z,47.63
2022-11-19T11:46:56.047Z,53.08
2022-11-19T11:49:29.840Z,51.10
2022-11-19T11:52:04.135Z,49.67
2022-11-19T11:54:32.034Z,48.67
2022-11-19T11:57:18.508Z,51.80
2022-11-19T11:59:47.613Z,53.97
2022-11-19T12:02:26.853Z,54.00
2022-11-19T12:04:56.055Z,50.50
2022-11-19T12:07:36.765Z,50.67
2022-11-19T12:10:15.320Z,52.83
2022-11-19T12:12:49.331Z,47.40
2022-11-19T12:15:23.120Z,61.80
2022-11-19T12:17:55.765Z,52.50
2022-11-19T12:20:30.643Z,55.63
2022-11-19T12:23:15.700Z,50.47
2022-11-19T12:25:52.252Z,50.80
2022-11-19T12:28:38.884Z,51.37
2022-11-19T12:31:16.977Z,53.80
2022-11-19T12:33:57.473Z,50.63
2022-11-19T12:36:32.009Z,50.80
2022-11-19T12:39:03.971Z,50.47
2022-11-19T12:41:45.085Z,51.83
2022-11-19T12:44:18.082Z,53.43
2022-11-19T12:46:52.997Z,50.33
2022-11-19T12:49:38.780Z,51.47
2022-11-19T12:52:17.421Z,54.20
2022-11-19T12:54:52.798Z,53.73
2022-11-19T12:57:30.082Z,51.60
2022-11-19T13:00:16.339Z,49.80
2022-11-19T13:02:53.370Z,50.90
2022-11-19T13:05:26.464Z,51.13
2022-11-19T13:07:57.762Z,51.27
2022-11-19T13:10:27.824Z,55.10
2022-11-19T13:12:57.293Z,51.80
2022-11-19T13:15:31.593Z,54.50
2022-11-19T13:18:03.768Z,52.37
2022-11-19T13:20:38.863Z,55.70
2022-11-19T13:23:07.802Z,50.60
2022-11-19T13:25:38.322Z,52.67
2022-11-19T13:28:14.777Z,53.00
2022-11-19T13:30:44.328Z,55.40
2022-11-19T13:33:17.389Z,57.83
2022-11-19T13:35:50.063Z,55.13
2022-11-19T13:38:22.614Z,53.60
2022-11-19T13:40:54.472Z,52.17
2022-11-19T13:43:41.256Z,52.57
2022-11-19T13:46:19.871Z,49.37
2022-11-19T13:48:54.842Z,50.37
2022-11-19T13:51:28.278Z,47.57
2022-11-19T13:54:02.673Z,49.80
2022-11-19T13:56:41.166Z,50.70
2022-11-19T13:59:16.547Z,52.87
2022-11-19T14:02:01.029Z,48.40
2022-11-19T14:04:43.084Z,51.03
2022-11-19T14:07:46.531Z,50.10
2022-11-19T14:10:18.712Z,53.13
2022-11-19T14:12:56.672Z,50.40
2022-11-19T14:15:53.969Z,50.33
2022-11-19T14:18:43.932Z,50.30
2022-11-19T14:22:06.916Z,50.63
2022-11-19T14:25:11.324Z,47.70
2022-11-19T14:27:38.995Z,49.80
2022-11-19T14:30:08.669Z,50.57
2022-11-19T14:32:46.738Z,52.20
2022-11-19T14:35:42.173Z,50.50
2022-11-19T14:38:31.641Z,50.70
2022-11-19T14:41:18.443Z,48.10
2022-11-19T14:44:11.514Z,51.47
2022-11-19T14:46:41.237Z,47.57
2022-11-19T14:49:27.516Z,52.87
2022-11-19T14:51:56.987Z,50.93
2022-11-19T14:54:33.270Z,50.10
2022-11-19T14:57:16.424Z,49.13
2022-11-19T14:59:47.711Z,48.53
2022-11-19T15:02:23.249Z,50.57
2022-11-19T15:04:56.553Z,51.10
2022-11-19T15:07:39.297Z,47.90
2022-11-19T15:10:26.093Z,54.30
2022-11-19T15:13:06.670Z,51.60
2022-11-19T15:15:39.631Z,50.13
2022-11-19T15:18:18.434Z,52.28
2022-11-19T15:21:00.669Z,52.50
2022-11-19T15:23:32.864Z,49.20
2022-11-19T15:26:08.440Z,50.33
2022-11-19T15:28:45.120Z,47.78
2022-11-19T15:31:23.777Z,51.25
2022-11-19T15:34:22.845Z,49.25
2022-11-19T15:36:51.359Z,48.88
2022-11-19T15:39:23.949Z,51.92
2022-11-19T15:42:04.174Z,50.47
2022-11-19T15:44:38.404Z,50.78
2022-11-19T15:47:12.782Z,53.45
2022-11-19T15:49:40.884Z,50.35
2022-11-19T15:52:18.285Z,48.45
2022-11-19T15:54:46.152Z,49.55
2022-11-19T15:57:23.088Z,51.47
2022-11-19T15:59:55.164Z,50.35
2022-11-19T16:02:26.607Z,49.58
2022-11-19T16:04:54.278Z,47.25
2022-11-19T16:07:24.245Z,49.45
2022-11-19T16:09:52.225Z,48.17
2022-11-19T16:12:41.111Z,47.63
2022-11-19T16:15:42.813Z,50.05
2022-11-19T16:18:14.289Z,50.88
2022-11-19T16:20:43.924Z,50.05
2022-11-19T16:23:11.934Z,48.15
2022-11-19T16:25:41.516Z,47.22
2022-11-19T16:28:13.480Z,50.55
2022-11-19T16:30:46.266Z,48.40
2022-11-19T16:33:20.316Z,51.42
2022-11-19T16:35:52.564Z,49.47
2022-11-19T16:38:25.022Z,49.42
2022-11-19T16:41:11.504Z,47.05
2022-11-19T16:43:42.065Z,49.10
2022-11-19T16:46:13.292Z,51.53
2022-11-19T16:48:54.588Z,48.30
2022-11-19T16:51:37.056Z,47.15
2022-11-19T16:54:06.134Z,46.15
2022-11-19T16:56:36.420Z,46.67
2022-11-19T16:59:06.533Z,40.63
2022-11-19T17:01:35.938Z,39.80
2022-11-19T17:04:06.938Z,46.38
2022-11-19T17:06:37.092Z,37.53
2022-11-19T17:09:06.351Z,37.83
2022-11-19T17:11:59.834Z,41.08
2022-11-19T17:14:46.847Z,37.83
2022-11-19T17:17:40.369Z,40.95
2022-11-19T17:20:49.685Z,39.05
2022-11-19T17:23:18.860Z,39.05
2022-11-19T17:25:48.365Z,38.83
2022-11-19T17:28:26.722Z,43.33
2022-11-19T17:30:56.576Z,38.65
2022-11-19T17:33:24.724Z,37.55
2022-11-19T17:35:52.756Z,38.65
2022-11-19T17:38:21.497Z,38.50
2022-11-19T17:40:51.057Z,39.58
2022-11-19T17:43:41.680Z,39.92
2022-11-19T17:46:10.849Z,43.42
2022-11-19T17:48:41.064Z,40.10
2022-11-19T17:51:11.494Z,41.92
2022-11-19T17:53:39.473Z,43.72
2022-11-19T17:56:08.506Z,40.80
2022-11-19T17:58:36.119Z,38.40
2022-11-19T18:01:03.784Z,43.47
2022-11-19T18:03:32.772Z,39.10
2022-11-19T18:06:02.351Z,41.78
2022-11-19T18:08:30.064Z,39.50
2022-11-19T18:10:58.053Z,38.55
2022-11-19T18:13:27.467Z,38.95
2022-11-19T18:15:55.188Z,37.13
2022-11-19T18:18:24.165Z,40.90
2022-11-19T18:20:57.602Z,40.45
2022-11-19T18:23:28.333Z,40.17
2022-11-19T18:25:56.100Z,39.50
2022-11-19T18:28:23.792Z,38.83
2022-11-19T18:30:51.504Z,39.95
2022-11-19T18:33:20.198Z,38.08
2022-11-19T18:35:47.935Z,40.38
2022-11-19T18:38:17.139Z,40.67
2022-11-19T18:40:44.833Z,40.03
2022-11-19T18:43:40.044Z,41.58
2022-11-19T18:46:07.895Z,40.65
2022-11-19T18:48:35.620Z,41.47
2022-11-19T18:51:03.333Z,44.35
2022-11-19T18:53:32.414Z,39.53
2022-11-19T18:56:00.145Z,38.63
2022-11-19T18:58:27.812Z,40.25
2022-11-19T19:00:55.553Z,39.47
2022-11-19T19:03:23.270Z,39.70
2022-11-19T19:05:51.001Z,39.97
2022-11-19T19:08:19.087Z,39.35
2022-11-19T19:10:48.083Z,43.72
2022-11-19T19:13:14.735Z,44.97
2022-11-19T19:15:42.378Z,39.90
2022-11-19T19:18:11.138Z,40.50
2022-11-19T19:20:38.783Z,41.85
2022-11-19T19:23:06.520Z,43.17
2022-11-19T19:25:34.255Z,38.63
2022-11-19T19:28:03.268Z,39.38
2022-11-19T19:30:30.984Z,43.42
2022-11-19T19:32:58.660Z,40.35
2022-11-19T19:35:26.538Z,38.78
2022-11-19T19:37:54.683Z,38.85
2022-11-19T19:40:22.352Z,40.75
2022-11-19T19:42:50.108Z,37.60
2022-11-19T19:45:19.164Z,43.25
2022-11-19T19:47:46.853Z,39.47
2022-11-19T19:50:14.634Z,41.33
2022-11-19T19:52:42.364Z,37.78
2022-11-19T19:55:10.447Z,39.75
2022-11-19T19:57:38.186Z,38.55
2022-11-19T20:00:07.148Z,39.65
2022-11-19T20:02:36.220Z,38.13
2022-11-19T20:05:03.999Z,43.30
2022-11-19T20:07:31.868Z,39.00
2022-11-19T20:09:59.604Z,38.17
2022-11-19T20:12:48.059Z,39.50
2022-11-19T20:15:15.964Z,42.65
2022-11-19T20:17:45.176Z,39.25
2022-11-19T20:20:13.575Z,39.53
2022-11-19T20:22:41.194Z,37.38
2022-11-19T20:25:09.271Z,38.97
2022-11-19T20:27:37.021Z,38.15
2022-11-19T20:30:06.037Z,41.35
2022-11-19T20:32:33.781Z,38.15
2022-11-19T20:35:02.791Z,39.15
2022-11-19T20:37:30.464Z,36.03
2022-11-19T20:39:58.281Z,39.00
2022-11-19T20:42:43.717Z,37.72
2022-11-19T20:45:11.459Z,38.28
2022-11-19T20:47:39.216Z,37.97
2022-11-19T20:50:08.707Z,40.40
2022-11-19T20:52:36.440Z,38.03
2022-11-19T20:55:06.778Z,40.13
2022-11-19T20:57:34.753Z,38.10
2022-11-19T21:00:02.544Z,37.78
2022-11-19T21:02:30.316Z,36.90
2022-11-19T21:04:58.248Z,34.67
2022-11-19T21:07:27.488Z,36.20
2022-11-19T21:09:55.224Z,37.20
2022-11-19T21:12:23.905Z,35.35
2022-11-19T21:14:51.624Z,36.20
2022-11-19T21:17:19.329Z,37.40
2022-11-19T21:19:47.037Z,38.10
2022-11-19T21:22:14.800Z,37.67
2022-11-19T21:24:43.890Z,38.47
2022-11-19T21:27:11.535Z,35.60
2022-11-19T21:29:39.350Z,37.67
2022-11-19T21:32:08.134Z,40.83
2022-11-19T21:34:35.861Z,37.63
2022-11-19T21:37:03.526Z,39.67
2022-11-19T21:39:31.168Z,37.28
2022-11-19T21:42:00.276Z,36.88
2022-11-19T21:44:28.016Z,35.55
2022-11-19T21:46:55.797Z,36.60
2022-11-19T21:49:23.705Z,36.92
2022-11-19T21:51:51.530Z,36.30
2022-11-19T21:54:19.349Z,36.85
2022-11-19T21:56:47.226Z,35.42
2022-11-19T21:59:16.312Z,36.10
2022-11-19T22:01:43.999Z,38.10
2022-11-19T22:04:13.585Z,39.03
2022-11-19T22:06:41.587Z,35.40
2022-11-19T22:09:09.400Z,37.60
2022-11-19T22:11:37.108Z,34.97
2022-11-19T22:14:06.118Z,39.92
2022-11-19T22:16:36.774Z,36.55
2022-11-19T22:19:05.550Z,36.90
2022-11-19T22:21:33.623Z,34.25
2022-11-19T22:24:01.389Z,35.47
2022-11-19T22:26:29.177Z,36.33
2022-11-19T22:28:57.026Z,38.15
2022-11-19T22:31:25.583Z,37.80
2022-11-19T22:33:55.478Z,36.70
2022-11-19T22:36:23.891Z,34.22
2022-11-19T22:38:52.041Z,37.92
2022-11-19T22:41:21.925Z,36.65
2022-11-19T22:43:49.817Z,35.45
2022-11-19T22:46:17.746Z,36.15
2022-11-19T22:48:45.482Z,36.45
2022-11-19T22:51:16.100Z,35.67
2022-11-19T22:53:44.007Z,37.95
2022-11-19T22:56:13.738Z,37.65
2022-11-19T22:58:41.682Z,35.63
2022-11-19T23:01:15.572Z,38.90
2022-11-19T23:03:43.352Z,34.88
2022-11-19T23:06:11.024Z,37.45
2022-11-19T23:08:40.096Z,35.70
2022-11-19T23:11:08.406Z,37.67
2022-11-19T23:13:38.957Z,36.78
2022-11-19T23:16:09.131Z,37.75
2022-11-19T23:18:38.556Z,35.70
2022-11-19T23:21:08.109Z,53.40
2022-11-19T23:23:35.952Z,53.10
2022-11-19T23:26:05.827Z,52.38
2022-11-19T23:28:35.450Z,98.22
2022-11-19T23:31:07.274Z,56.80
2022-11-19T23:33:34.940Z,54.90
2022-11-19T23:36:04.077Z,58.13
2022-11-19T23:38:31.959Z,54.45
2022-11-19T23:41:00.109Z,54.03
2022-11-19T23:43:29.899Z,55.45
2022-11-19T23:46:04.376Z,54.00
2022-11-19T23:48:32.149Z,53.72
2022-11-19T23:51:01.920Z,57.55
2022-11-19T23:53:29.647Z,55.03
2022-11-19T23:55:57.547Z,54.60
2022-11-19T23:58:25.211Z,55.78
